Time;durP1;ratioP1;P1;durP2;ratioP2;P2;SDS_P1;SDS_P2;PMS_P1;PMS_P2;Temp;Humidity;BMP_temperature;BMP_pressure;BME280_temperature;BME280_humidity;BME280_pressure;Samples;Min_cycle;Max_cycle;Signal;HPM_P1;HPM_P2
2022/09/24 00:01:59;;;;;;;81.45;58.67;;;;;;;;;;5088417;28;20789;-78
2022/09/24 00:04:26;;;;;;;85.93;59.25;;;14.00;99.90;;;;;;5092206;28;20820;-77
2022/09/24 00:06:52;;;;;;;83.10;58.97;;;;;;;;;;5088171;28;20801;-78
2022/09/24 00:09:20;;;;;;;85.03;60.42;;;;;;;;;;5096117;28;20425;-79
2022/09/24 00:11:48;;;;;;;88.63;60.92;;;13.70;99.90;;;;;;5084024;28;20454;-77
2022/09/24 00:14:14;;;;;;;90.20;60.60;;;;;;;;;;5083420;28;21202;-77
2022/09/24 00:16:42;;;;;;;90.40;61.05;;;13.90;99.90;;;;;;5072764;28;20455;-77
2022/09/24 00:19:10;;;;;;;90.13;62.53;;;14.00;99.90;;;;;;5071749;28;20400;-77
2022/09/24 00:21:37;;;;;;;94.00;63.47;;;;;;;;;;5093723;28;20428;-78
2022/09/24 00:24:05;;;;;;;94.10;63.57;;;;;;;;;;5079899;28;20451;-77
2022/09/24 00:26:49;;;;;;;93.05;63.70;;;;;;;;;;5069970;28;20511;-77
2022/09/24 00:29:22;;;;;;;97.47;64.57;;;;;;;;;;5074674;28;20416;-77
2022/09/24 00:31:50;;;;;;;101.88;68.88;;;13.60;99.90;;;;;;5110427;28;20416;-78
2022/09/24 00:34:16;;;;;;;106.30;69.03;;;;;;;;;;5078707;28;20567;-77
2022/09/24 00:36:45;;;;;;;103.00;66.10;;;;;;;;;;5092525;28;20449;-78
2022/09/24 00:39:12;;;;;;;109.88;69.05;;;13.50;99.90;;;;;;5072656;28;20453;-78
2022/09/24 00:41:38;;;;;;;105.32;67.55;;;;;;;;;;5099979;27;20425;-77
2022/09/24 00:44:23;;;;;;;105.38;68.90;;;;;;;;;;5115216;27;20486;-77
2022/09/24 00:46:49;;;;;;;106.63;70.90;;;;;;;;;;5101649;28;20435;-77
2022/09/24 00:49:16;;;;;;;107.07;70.05;;;;;;;;;;5095337;27;20430;-77
2022/09/24 00:51:44;;;;;;;108.97;71.03;;;;;;;;;;5094816;28;20473;-77
2022/09/24 00:54:17;;;;;;;107.22;70.90;;;;;;;;;;5094510;27;20463;-77
2022/09/24 00:56:44;;;;;;;113.15;73.97;;;;;;;;;;5097863;27;20414;-77
2022/09/24 00:59:11;;;;;;;111.57;72.53;;;;;;;;;;5096112;27;20399;-77
2022/09/24 01:01:38;;;;;;;108.47;72.38;;;13.80;99.90;;;;;;5092525;28;20467;-77
2022/09/24 01:04:04;;;;;;;112.17;73.47;;;;;;;;;;5074723;28;20859;-77
2022/09/24 01:06:30;;;;;;;112.70;72.28;;;;;;;;;;5066285;28;20421;-78
2022/09/24 01:08:58;;;;;;;114.63;74.07;;;13.70;99.90;;;;;;5073760;28;20430;-77
2022/09/24 01:11:35;;;;;;;120.75;74.25;;;;;;;;;;5091199;28;20412;-77
2022/09/24 01:14:20;;;;;;;117.28;74.30;;;;;;;;;;5111802;28;20426;-77
2022/09/24 01:16:55;;;;;;;121.32;76.30;;;;;;;;;;5074233;28;20413;-77
2022/09/24 01:19:24;;;;;;;118.90;74.65;;;;;;;;;;5085145;28;20416;-77
2022/09/24 01:21:54;;;;;;;125.28;77.88;;;;;;;;;;5102715;27;20431;-77
2022/09/24 01:24:20;;;;;;;128.63;78.15;;;;;;;;;;5114514;27;20410;-77
2022/09/24 01:27:08;;;;;;;129.65;76.88;;;;;;;;;;5092432;28;20457;-77
2022/09/24 01:29:46;;;;;;;126.68;77.85;;;;;;;;;;5085512;28;20913;-77
2022/09/24 01:32:39;;;;;;;130.55;80.03;;;13.70;99.90;;;;;;5056819;28;20402;-77
2022/09/24 01:35:23;;;;;;;130.80;78.03;;;;;;;;;;5078075;28;20457;-77
2022/09/24 01:37:58;;;;;;;133.20;79.07;;;;;;;;;;5079837;27;22148;-78
2022/09/24 01:40:26;;;;;;;134.20;79.72;;;;;;;;;;5092911;28;20450;-77
2022/09/24 01:42:53;;;;;;;138.63;80.93;;;;;;;;;;5079514;28;20424;-77
2022/09/24 01:45:19;;;;;;;133.65;79.35;;;;;;;;;;5099262;27;20421;-78
2022/09/24 01:47:46;;;;;;;137.52;80.65;;;;;;;;;;5092186;28;20501;-77
2022/09/24 01:50:15;;;;;;;138.85;82.80;;;13.60;99.90;;;;;;5098232;27;20510;-77
2022/09/24 01:53:01;;;;;;;136.37;81.57;;;;;;;;;;5114406;28;20417;-77
2022/09/24 01:55:31;;;;;;;136.60;81.25;;;;;;;;;;5093590;27;20430;-77
2022/09/24 01:58:18;;;;;;;131.98;78.65;;;;;;;;;;5090528;28;20442;-77
2022/09/24 02:00:48;;;;;;;142.23;81.70;;;;;;;;;;5090547;27;20510;-77
2022/09/24 02:03:20;;;;;;;128.02;77.80;;;;;;;;;;5097296;28;20762;-76
2022/09/24 02:05:58;;;;;;;137.15;81.85;;;;;;;;;;5091823;28;20804;-77
2022/09/24 02:08:44;;;;;;;147.00;83.72;;;;;;;;;;5088054;28;20431;-76
2022/09/24 02:11:13;;;;;;;136.35;80.93;;;;;;;;;;5080669;28;20901;-77
2022/09/24 02:13:53;;;;;;;140.00;82.68;;;;;;;;;;5087552;28;20922;-77
2022/09/24 02:16:21;;;;;;;135.05;80.70;;;;;;;;;;5068925;28;20722;-76
2022/09/24 02:18:49;;;;;;;136.10;80.18;;;;;;;;;;5081012;28;20414;-77
2022/09/24 02:21:18;;;;;;;134.77;79.53;;;13.70;99.90;;;;;;5073393;28;20426;-76
2022/09/24 02:23:50;;;;;;;131.43;78.78;;;14.00;99.90;;;;;;5132060;28;20386;-78
2022/09/24 02:26:16;;;;;;;130.50;78.45;;;;;;;;;;5099630;28;20429;-77
2022/09/24 02:28:41;;;;;;;133.98;79.65;;;13.80;99.90;;;;;;5093321;28;20421;-77
2022/09/24 02:31:13;;;;;;;141.98;81.68;;;14.00;99.90;;;;;;5085895;28;20420;-77
2022/09/24 02:36:27;;;;;;;136.60;79.90;;;;;;;;;;5105689;28;20417;-78
2022/09/24 02:38:53;;;;;;;125.13;77.47;;;14.00;99.90;;;;;;5075131;28;20887;-78
2022/09/24 02:41:22;;;;;;;135.05;79.40;;;13.90;99.90;;;;;;5106496;28;20510;-78
2022/09/24 02:43:48;;;;;;;135.55;80.00;;;;;;;;;;5095965;28;20420;-78
2022/09/24 02:46:14;;;;;;;135.68;79.65;;;;;;;;;;5111023;28;20909;-78
2022/09/24 02:48:40;;;;;;;134.02;81.63;;;14.10;99.90;;;;;;5063643;28;20932;-77
2022/09/24 02:51:07;;;;;;;140.10;81.00;;;;;;;;;;5097013;28;20416;-77
2022/09/24 02:53:33;;;;;;;143.93;83.80;;;;;;;;;;5093043;28;20396;-78
2022/09/24 02:55:59;;;;;;;136.40;80.10;;;;;;;;;;5091833;28;20431;-78
2022/09/24 02:58:26;;;;;;;140.23;81.32;;;;;;;;;;5075291;28;20742;-77
2022/09/24 03:00:53;;;;;;;140.33;82.83;;;13.80;99.90;;;;;;5074791;28;20410;-77
2022/09/24 03:03:21;;;;;;;147.27;83.43;;;;;;;;;;5096342;28;20946;-77
2022/09/24 03:05:48;;;;;;;141.83;80.97;;;;;;;;;;5096353;28;20477;-78
2022/09/24 03:08:14;;;;;;;151.35;83.45;;;;;;;;;;5096052;28;20420;-77
2022/09/24 03:10:40;;;;;;;151.35;83.82;;;;;;;;;;5095065;28;20729;-77
2022/09/24 03:13:06;;;;;;;143.48;82.60;;;;;;;;;;5094928;28;20420;-78
2022/09/24 03:15:32;;;;;;;144.73;82.50;;;;;;;;;;5088526;27;20424;-78
2022/09/24 03:17:58;;;;;;;147.18;82.18;;;;;;;;;;5100124;28;20419;-78
2022/09/24 03:20:24;;;;;;;140.00;79.82;;;;;;;;;;5112062;27;20410;-78
2022/09/24 03:22:50;;;;;;;152.00;81.85;;;13.70;99.90;;;;;;5112010;27;20422;-79
2022/09/24 03:25:17;;;;;;;160.13;86.45;;;;;;;;;;5090912;28;20418;-78
2022/09/24 03:27:43;;;;;;;151.40;85.47;;;;;;;;;;5075641;28;20430;-78
2022/09/24 03:32:54;;;;;;;179.45;91.93;;;13.90;99.90;;;;;;5089630;28;20444;-78
2022/09/24 03:35:20;;;;;;;186.00;91.03;;;14.10;99.90;;;;;;5095854;28;20843;-78
2022/09/24 03:37:46;;;;;;;184.18;92.50;;;;;;;;;;5086074;28;20422;-77
2022/09/24 03:40:12;;;;;;;217.23;96.65;;;14.20;99.90;;;;;;5105266;27;20418;-77
2022/09/24 03:42:38;;;;;;;195.90;96.50;;;;;;;;;;5105942;28;20749;-78
2022/09/24 03:45:05;;;;;;;223.15;99.60;;;14.00;99.90;;;;;;5094211;28;20929;-78
2022/09/24 03:47:31;;;;;;;210.75;97.18;;;;;;;;;;5069092;28;20457;-80
2022/09/24 03:49:57;;;;;;;251.52;103.90;;;;;;;;;;5075806;28;20532;-79
2022/09/24 03:52:23;;;;;;;287.23;108.93;;;13.60;99.90;;;;;;5075181;28;20998;-79
2022/09/24 03:54:49;;;;;;;301.55;111.30;;;13.90;99.90;;;;;;5076656;27;20444;-79
2022/09/24 03:57:15;;;;;;;248.55;103.10;;;;;;;;;;5101929;28;20901;-79
2022/09/24 03:59:43;;;;;;;291.52;110.85;;;13.60;99.90;;;;;;5069536;27;20792;-79
2022/09/24 04:02:09;;;;;;;285.30;111.75;;;;;;;;;;5102175;28;20508;-79
2022/09/24 04:04:35;;;;;;;259.73;108.80;;;;;;;;;;5114845;27;20906;-79
2022/09/24 04:07:01;;;;;;;262.65;109.78;;;;;;;;;;5103871;28;20421;-80
2022/09/24 04:09:27;;;;;;;277.85;110.97;;;;;;;;;;5083344;27;20430;-79
2022/09/24 04:11:53;;;;;;;253.27;110.13;;;13.90;99.90;;;;;;5115965;27;20409;-79
2022/09/24 04:14:20;;;;;;;227.30;102.87;;;;;;;;;;5096715;27;20410;-79
2022/09/24 04:16:46;;;;;;;221.05;100.22;;;;;;;;;;5123299;27;20412;-79
2022/09/24 04:19:14;;;;;;;169.50;88.13;;;13.60;99.90;;;;;;5064152;28;20409;-79
2022/09/24 04:21:44;;;;;;;190.23;93.32;;;13.50;99.90;;;;;;5098113;27;20411;-80
2022/09/24 04:24:11;;;;;;;200.25;94.57;;;;;;;;;;5098909;27;20422;-79
2022/09/24 04:26:37;;;;;;;227.18;104.90;;;;;;;;;;5109164;28;20493;-79
2022/09/24 04:29:02;;;;;;;205.32;114.20;;;13.60;99.90;;;;;;5112757;27;20429;-77
2022/09/24 04:31:29;;;;;;;231.45;116.20;;;;;;;;;;5109457;28;20417;-78
2022/09/24 04:33:55;;;;;;;213.35;103.22;;;;;;;;;;5105877;27;20468;-79
2022/09/24 04:36:21;;;;;;;210.98;102.28;;;;;;;;;;5109238;27;20391;-71
2022/09/24 04:38:47;;;;;;;263.80;106.43;;;;;;;;;;5079449;28;20410;-71
2022/09/24 04:41:15;;;;;;;218.97;101.80;;;;;;;;;;5057476;28;20422;-71
2022/09/24 04:43:41;;;;;;;203.10;98.50;;;;;;;;;;5102269;27;20414;-71
2022/09/24 04:46:08;;;;;;;255.57;100.65;;;;;;;;;;5114795;27;20491;-70
2022/09/24 04:48:37;;;;;;;227.15;97.65;;;13.90;99.90;;;;;;5083940;27;20424;-71
2022/09/24 04:51:05;;;;;;;223.15;98.05;;;14.00;99.90;;;;;;5131903;27;20422;-70
2022/09/24 04:53:31;;;;;;;210.07;92.43;;;;;;;;;;5095167;27;20497;-71
2022/09/24 04:55:58;;;;;;;197.60;88.10;;;;;;;;;;5114785;27;20468;-70
2022/09/24 04:58:25;;;;;;;215.43;91.45;;;14.20;99.90;;;;;;5097082;27;20762;-71
2022/09/24 05:00:52;;;;;;;176.38;84.38;;;13.70;99.90;;;;;;5112654;27;20418;-71
2022/09/24 05:03:20;;;;;;;185.68;84.88;;;;;;;;;;5102484;28;20912;-71
2022/09/24 05:05:46;;;;;;;161.93;78.50;;;;;;;;;;5106822;27;20464;-71
2022/09/24 05:08:12;;;;;;;170.70;82.10;;;13.70;99.90;;;;;;5078069;27;20974;-71
2022/09/24 05:10:38;;;;;;;152.05;73.95;;;;;;;;;;5114554;27;20430;-71
2022/09/24 05:13:05;;;;;;;147.27;71.35;;;;;;;;;;5107808;27;20422;-71
2022/09/24 05:15:31;;;;;;;136.97;67.03;;;;;;;;;;5076875;28;20504;-71
2022/09/24 05:17:58;;;;;;;125.93;60.63;;;;;;;;;;5080523;27;20428;-71
2022/09/24 05:20:24;;;;;;;118.65;58.67;;;14.00;99.90;;;;;;5076084;28;20450;-71
2022/09/24 05:22:50;;;;;;;101.85;52.50;;;;;;;;;;5058944;27;20424;-71
2022/09/24 05:25:18;;;;;;;97.72;50.38;;;;;;;;;;5097466;27;20394;-71
2022/09/24 05:27:49;;;;;;;74.57;40.53;;;13.70;99.90;;;;;;5082039;28;20502;-71
2022/09/24 05:30:15;;;;;;;60.60;34.17;;;;;;;;;;5114333;27;20501;-72
2022/09/24 05:32:41;;;;;;;53.17;30.35;;;;;;;;;;5125534;27;20414;-72
2022/09/24 05:35:08;;;;;;;51.60;26.60;;;;;;;;;;5088176;27;20427;-71
2022/09/24 05:37:35;;;;;;;47.00;23.30;;;;;;;;;;5073160;28;20426;-71
2022/09/24 05:40:46;;;;;;;44.92;22.15;;;;;;;;;;5084198;27;20923;-72
2022/09/24 05:42:46;;;;;;;38.47;19.08;;;13.70;99.90;;;;;;5084844;27;20884;-71
2022/09/24 05:45:16;;;;;;;34.22;16.90;;;;;;;;;;5091658;28;20432;-71
2022/09/24 05:47:43;;;;;;;35.15;15.60;;;;;;;;;;5094790;28;20422;-72
2022/09/24 05:50:09;;;;;;;35.45;15.52;;;;;;;;;;5088488;27;20410;-71
2022/09/24 05:52:36;;;;;;;28.45;14.77;;;;;;;;;;5108382;27;20472;-71
2022/09/24 05:55:03;;;;;;;28.80;13.20;;;;;;;;;;5113838;27;20411;-72
2022/09/24 05:57:28;;;;;;;26.45;10.32;;;14.10;99.90;;;;;;5091083;28;20911;-72
2022/09/24 05:59:55;;;;;;;25.63;10.95;;;;;;;;;;5066069;27;20419;-72
2022/09/24 06:02:20;;;;;;;22.00;10.55;;;14.00;99.90;;;;;;5096575;27;20403;-71
2022/09/24 06:04:46;;;;;;;23.03;9.50;;;;;;;;;;5075052;28;20406;-71
2022/09/24 06:07:12;;;;;;;24.27;8.85;;;;;;;;;;5080577;28;20429;-71
2022/09/24 06:09:38;;;;;;;21.77;7.43;;;13.70;99.90;;;;;;5074965;28;20494;-71
2022/09/24 06:12:07;;;;;;;21.63;7.30;;;;;;;;;;5096086;28;20499;-72
2022/09/24 06:14:33;;;;;;;22.20;7.07;;;;;;;;;;5094005;28;20432;-71
2022/09/24 06:16:59;;;;;;;17.33;5.35;;;;;;;;;;5087633;28;20422;-72
2022/09/24 06:19:25;;;;;;;15.52;5.05;;;;;;;;;;5088371;28;20498;-72
2022/09/24 06:21:51;;;;;;;17.35;5.00;;;;;;;;;;5086745;28;20419;-72
2022/09/24 06:24:17;;;;;;;16.83;4.30;;;;;;;;;;5094395;28;20422;-73
2022/09/24 06:26:43;;;;;;;15.82;4.10;;;;;;;;;;5075247;28;20509;-73
2022/09/24 06:29:09;;;;;;;16.52;4.32;;;;;;;;;;5080571;28;20475;-73
2022/09/24 06:31:35;;;;;;;17.25;3.80;;;;;;;;;;5096101;28;20414;-72
2022/09/24 06:34:01;;;;;;;18.77;3.83;;;;;;;;;;5095778;28;20416;-71
2022/09/24 06:36:28;;;;;;;17.88;4.25;;;;;;;;;;5085326;28;20723;-72
2022/09/24 06:38:54;;;;;;;17.30;4.03;;;;;;;;;;5083656;28;20410;-71
2022/09/24 06:41:21;;;;;;;18.40;4.30;;;;;;;;;;5084289;28;20429;-71
2022/09/24 06:43:47;;;;;;;22.15;4.55;;;;;;;;;;5111932;27;20414;-72
2022/09/24 06:46:14;;;;;;;23.40;4.85;;;;;;;;;;5094652;28;20436;-72
2022/09/24 06:48:41;;;;;;;14.35;4.20;;;;;;;;;;5101564;27;20414;-72
2022/09/24 06:51:07;;;;;;;24.80;4.70;;;13.90;99.90;;;;;;5111056;27;20555;-71
2022/09/24 06:53:33;;;;;;;19.50;4.40;;;;;;;;;;5117398;27;20481;-71
2022/09/24 06:55:59;;;;;;;17.45;4.15;;;14.00;99.90;;;;;;5108426;27;20429;-71
2022/09/24 06:58:25;;;;;;;22.92;4.18;;;;;;;;;;5060160;28;20394;-71
2022/09/24 07:00:52;;;;;;;19.70;3.78;;;;;;;;;;5093845;27;20425;-71
2022/09/24 07:03:18;;;;;;;17.73;4.03;;;;;;;;;;5108184;28;20404;-71
2022/09/24 07:05:44;;;;;;;19.58;3.90;;;;;;;;;;5102249;27;20422;-72
2022/09/24 07:08:10;;;;;;;12.43;3.80;;;;;;;;;;5075871;28;20416;-71
2022/09/24 07:10:41;;;;;;;15.80;3.67;;;;;;;;;;5064341;27;20438;-78
2022/09/24 07:13:07;;;;;;;15.70;3.45;;;;;;;;;;5117621;27;20408;-80
2022/09/24 07:15:33;;;;;;;11.68;2.95;;;;;;;;;;5090842;27;20454;-79
2022/09/24 07:17:59;;;;;;;15.48;3.60;;;;;;;;;;5089657;28;20889;-79
2022/09/24 07:20:28;;;;;;;12.90;3.20;;;;;;;;;;5077300;28;20435;-78
2022/09/24 07:22:54;;;;;;;19.42;3.30;;;;;;;;;;5076401;28;20852;-79
2022/09/24 07:25:21;;;;;;;14.40;3.07;;;;;;;;;;5062052;28;20416;-79
2022/09/24 07:27:47;;;;;;;16.05;3.47;;;;;;;;;;5105643;27;20520;-79
2022/09/24 07:30:13;;;;;;;12.60;3.00;;;14.40;99.90;;;;;;5117162;27;20478;-78
2022/09/24 07:32:39;;;;;;;15.03;3.23;;;;;;;;;;5115486;27;20411;-78
2022/09/24 07:35:05;;;;;;;15.85;3.53;;;;;;;;;;5099746;27;20858;-79
2022/09/24 07:37:32;;;;;;;12.87;3.27;;;;;;;;;;5077431;27;20421;-80
2022/09/24 07:39:59;;;;;;;13.45;3.53;;;;;;;;;;5100274;27;20520;-80
2022/09/24 07:42:25;;;;;;;13.35;3.08;;;;;;;;;;5100335;27;20399;-80
2022/09/24 07:44:51;;;;;;;15.30;3.38;;;;;;;;;;5117573;27;20409;-79
2022/09/24 07:47:17;;;;;;;13.57;2.97;;;;;;;;;;5068767;27;20487;-79
2022/09/24 07:49:43;;;;;;;16.13;3.20;;;;;;;;;;5077655;28;20425;-78
2022/09/24 07:52:10;;;;;;;13.43;2.90;;;;;;;;;;5088476;28;21072;-78
2022/09/24 07:54:36;;;;;;;14.35;3.00;;;;;;;;;;5092471;28;20423;-77
2022/09/24 07:57:02;;;;;;;14.27;2.92;;;;;;;;;;5112266;28;20404;-76
2022/09/24 07:59:29;;;;;;;12.45;3.40;;;15.00;99.90;;;;;;5092229;28;20408;-77
2022/09/24 08:01:55;;;;;;;13.50;2.90;;;15.30;99.90;;;;;;5101018;27;20427;-77
2022/09/24 08:04:21;;;;;;;12.55;2.53;;;;;;;;;;5078466;28;20422;-77
2022/09/24 08:06:47;;;;;;;13.85;2.92;;;;;;;;;;5104946;27;20424;-77
2022/09/24 08:09:14;;;;;;;12.73;2.70;;;;;;;;;;5109641;27;20425;-77
2022/09/24 08:11:40;;;;;;;12.27;3.13;;;;;;;;;;5071020;27;20457;-78
2022/09/24 08:14:06;;;;;;;13.95;3.08;;;;;;;;;;5089796;28;20738;-77
2022/09/24 08:16:33;;;;;;;12.23;2.83;;;;;;;;;;5106501;27;20798;-77
2022/09/24 08:18:59;;;;;;;13.93;2.38;;;15.40;99.90;;;;;;5064903;28;20410;-77
2022/09/24 08:21:26;;;;;;;12.05;2.70;;;15.20;99.90;;;;;;5060046;28;20418;-77
2022/09/24 08:23:52;;;;;;;12.23;3.00;;;;;;;;;;5112475;27;20436;-77
2022/09/24 08:26:18;;;;;;;10.85;2.65;;;15.30;99.90;;;;;;5091779;27;20429;-77
2022/09/24 08:28:50;;;;;;;10.20;2.15;;;;;;;;;;5095987;28;20773;-77
2022/09/24 08:31:16;;;;;;;13.40;2.78;;;;;;;;;;5081051;27;20461;-78
2022/09/24 08:33:45;;;;;;;13.55;2.70;;;;;;;;;;5096639;28;20427;-76
2022/09/24 08:36:11;;;;;;;12.60;2.85;;;;;;;;;;5101133;27;20439;-78
2022/09/24 08:38:37;;;;;;;10.30;2.20;;;;;;;;;;5090701;28;20420;-78
2022/09/24 08:41:12;;;;;;;9.80;2.10;;;;;;;;;;5074931;28;20401;-78
2022/09/24 08:44:01;;;;;;;12.50;2.40;;;;;;;;;;5074794;28;20430;-78
2022/09/24 08:49:39;;;;;;;10.98;2.17;;;15.00;99.90;;;;;;5093766;28;20760;-78
2022/09/24 08:52:08;;;;;;;9.07;1.75;;;;;;;;;;5090956;28;20916;-77
2022/09/24 08:54:35;;;;;;;14.95;2.80;;;;;;;;;;5095782;28;20430;-78
2022/09/24 08:57:10;;;;;;;8.20;2.20;;;15.00;99.90;;;;;;5092921;28;20505;-77
2022/09/24 08:59:37;;;;;;;6.82;2.03;;;;;;;;;;5108209;27;20567;-78
2022/09/24 09:02:17;;;;;;;10.52;2.00;;;15.20;99.90;;;;;;5100813;27;20410;-78
2022/09/24 09:04:51;;;;;;;8.93;2.05;;;;;;;;;;5100783;27;20423;-77
2022/09/24 09:07:23;;;;;;;9.07;2.00;;;;;;;;;;5095227;28;20430;-78
2022/09/24 09:09:49;;;;;;;11.70;2.08;;;;;;;;;;5090759;27;20438;-76
2022/09/24 09:12:22;;;;;;;12.60;2.20;;;;;;;;;;5104863;27;20449;-77
2022/09/24 09:14:53;;;;;;;8.93;2.03;;;15.40;99.90;;;;;;5104398;27;20411;-77
2022/09/24 09:17:56;;;;;;;10.50;1.83;;;15.60;99.90;;;;;;5088221;28;20948;-76
2022/09/24 09:20:38;;;;;;;8.52;1.90;;;15.60;99.90;;;;;;5093082;27;20434;-76
2022/09/24 09:23:18;;;;;;;8.45;2.17;;;;;;;;;;5102257;28;20984;-77
2022/09/24 09:25:58;;;;;;;7.33;1.90;;;15.40;99.90;;;;;;5102281;27;20545;-77
2022/09/24 09:28:25;;;;;;;9.18;1.83;;;;;;;;;;5073053;28;20432;-77
2022/09/24 09:31:11;;;;;;;9.03;1.90;;;15.80;99.90;;;;;;5073611;28;20925;-77
2022/09/24 09:33:40;;;;;;;9.82;2.30;;;;;;;;;;5085902;27;20426;-77
2022/09/24 09:36:09;;;;;;;10.53;2.30;;;;;;;;;;5104917;28;20459;-77
2022/09/24 09:38:52;;;;;;;9.38;2.10;;;;;;;;;;5106399;28;20470;-78
2022/09/24 09:41:32;;;;;;;9.67;2.07;;;15.50;99.90;;;;;;5082342;28;20418;-77
2022/09/24 09:44:18;;;;;;;8.27;2.00;;;15.70;99.90;;;;;;5085710;28;20422;-77
2022/09/24 09:47:26;;;;;;;9.15;2.30;;;15.70;99.90;;;;;;5101093;27;20422;-77
2022/09/24 09:49:56;;;;;;;8.52;2.00;;;15.70;99.90;;;;;;5012500;28;20420;-77
2022/09/24 09:52:25;;;;;;;8.75;2.30;;;;;;;;;;5079519;28;20760;-77
2022/09/24 09:54:52;;;;;;;10.55;2.20;;;;;;;;;;5105265;27;20660;-77
2022/09/24 09:57:20;;;;;;;9.77;2.47;;;15.50;99.90;;;;;;5098224;28;20762;-77
2022/09/24 09:59:48;;;;;;;9.40;2.22;;;;;;;;;;5069633;28;20426;-77
2022/09/24 10:02:20;;;;;;;10.85;2.22;;;;;;;;;;5103086;27;20402;-77
2022/09/24 10:04:46;;;;;;;7.32;2.00;;;;;;;;;;5127670;27;20823;-77
2022/09/24 10:07:14;;;;;;;7.35;1.80;;;;;;;;;;5099401;27;20428;-77
2022/09/24 10:09:41;;;;;;;10.20;2.42;;;15.60;99.90;;;;;;5120546;27;20446;-77
2022/09/24 10:12:13;;;;;;;9.98;2.10;;;;;;;;;;5107792;28;20410;-77
2022/09/24 10:14:39;;;;;;;10.75;2.00;;;;;;;;;;5105307;28;20419;-77
2022/09/24 10:17:05;;;;;;;10.17;2.10;;;15.60;99.90;;;;;;5103795;28;20444;-77
2022/09/24 10:19:37;;;;;;;10.57;2.22;;;15.90;99.90;;;;;;5113317;27;20410;-78
2022/09/24 10:22:15;;;;;;;8.50;2.50;;;16.00;99.90;;;;;;5112756;27;20446;-78
2022/09/24 10:24:42;;;;;;;10.27;2.10;;;15.80;99.90;;;;;;5114630;27;20778;-72
2022/09/24 10:27:13;;;;;;;8.55;2.30;;;15.80;99.90;;;;;;5076283;27;20491;-71
2022/09/24 10:32:28;;;;;;;6.88;1.90;;;15.70;99.90;;;;;;5103865;28;20479;-72
2022/09/24 10:35:05;;;;;;;6.85;1.85;;;;;;;;;;5083714;27;20426;-72
2022/09/24 10:37:31;;;;;;;9.80;1.77;;;;;;;;;;5090576;27;20407;-71
2022/09/24 10:40:01;;;;;;;9.68;1.73;;;;;;;;;;5082182;28;20416;-72
2022/09/24 10:42:29;;;;;;;13.43;2.50;;;15.20;99.90;;;;;;5104865;27;20421;-72
2022/09/24 10:45:00;;;;;;;7.80;2.08;;;15.40;99.90;;;;;;5083468;28;20421;-71
2022/09/24 10:47:26;;;;;;;9.97;2.10;;;;;;;;;;5092177;27;20414;-71
2022/09/24 10:49:55;;;;;;;8.90;2.00;;;;;;;;;;5115233;27;20434;-71
2022/09/24 10:52:30;;;;;;;9.07;2.20;;;;;;;;;;5095880;28;20511;-72
2022/09/24 10:55:05;;;;;;;9.67;2.10;;;15.70;99.90;;;;;;5088533;28;20505;-71
2022/09/24 10:57:31;;;;;;;9.13;2.58;;;;;;;;;;5083402;27;20817;-71
2022/09/24 11:00:03;;;;;;;10.45;2.00;;;15.60;99.90;;;;;;5094229;27;20410;-71
2022/09/24 11:02:47;;;;;;;8.30;1.70;;;;;;;;;;5099625;28;20423;-71
2022/09/24 11:05:36;;;;;;;8.52;1.98;;;;;;;;;;5099306;27;20429;-71
2022/09/24 11:08:41;;;;;;;8.13;1.67;;;;;;;;;;5069392;28;20426;-71
2022/09/24 11:11:25;;;;;;;11.77;2.57;;;;;;;;;;5027960;28;20424;-71
2022/09/24 11:14:00;;;;;;;8.23;2.10;;;;;;;;;;5022663;28;20459;-71
2022/09/24 11:16:46;;;;;;;11.70;2.58;;;;;;;;;;5077629;27;20414;-71
2022/09/24 11:19:31;;;;;;;9.95;2.47;;;;;;;;;;5098474;28;20418;-71
2022/09/24 11:22:29;;;;;;;11.15;2.40;;;14.90;99.90;;;;;;5084425;28;20416;-73
2022/09/24 11:25:19;;;;;;;11.65;2.67;;;;;;;;;;5089410;28;20421;-72
2022/09/24 11:28:18;;;;;;;10.88;2.38;;;;;;;;;;5039005;28;20467;-72
2022/09/24 11:30:55;;;;;;;14.52;2.78;;;;;;;;;;5018640;28;20548;-73
2022/09/24 11:33:49;;;;;;;12.10;2.60;;;14.60;99.90;;;;;;5042072;28;20426;-72
2022/09/24 11:36:21;;;;;;;8.63;2.70;;;;;;;;;;5047870;28;20913;-73
2022/09/24 11:38:53;;;;;;;10.10;3.33;;;;;;;;;;5046098;28;20423;-74
2022/09/24 11:41:20;;;;;;;12.87;3.03;;;;;;;;;;5038445;28;20460;-73
2022/09/24 11:43:55;;;;;;;14.87;3.73;;;;;;;;;;5059261;28;20426;-74
2022/09/24 11:46:36;;;;;;;10.13;2.63;;;;;;;;;;5043309;28;20424;-74
2022/09/24 11:49:21;;;;;;;10.57;2.70;;;;;;;;;;5038163;28;20426;-73
2022/09/24 11:51:47;;;;;;;13.83;3.37;;;;;;;;;;5047089;28;20929;-74
2022/09/24 11:54:24;;;;;;;13.35;3.10;;;;;;;;;;5046020;28;20423;-73
2022/09/24 11:56:57;;;;;;;14.80;3.63;;;;;;;;;;5035320;28;20428;-73
2022/09/24 11:59:46;;;;;;;11.03;2.97;;;;;;;;;;5042489;28;20418;-74
2022/09/24 12:02:12;;;;;;;14.52;5.60;;;;;;;;;;5016269;28;20423;-73
2022/09/24 12:04:41;;;;;;;12.95;4.30;;;;;;;;;;5048322;28;20480;-74
2022/09/24 12:07:18;;;;;;;12.88;2.60;;;14.30;99.90;;;;;;5024154;28;20433;-74
2022/09/24 12:10:23;;;;;;;15.50;3.08;;;14.70;99.90;;;;;;5039519;28;20897;-74
2022/09/24 12:12:50;;;;;;;12.32;2.75;;;;;;;;;;5042035;28;20431;-73
2022/09/24 12:15:19;;;;;;;10.50;3.00;;;;;;;;;;5031630;28;20448;-74
2022/09/24 12:17:57;;;;;;;14.52;2.90;;;14.70;99.90;;;;;;5067009;28;20417;-74
2022/09/24 12:20:27;;;;;;;10.73;2.90;;;;;;;;;;5036290;28;20436;-73
2022/09/24 12:23:01;;;;;;;9.65;2.80;;;14.80;99.90;;;;;;5039808;28;20890;-74
2022/09/24 12:25:33;;;;;;;11.98;2.65;;;;;;;;;;5035567;28;20432;-73
2022/09/24 12:28:00;;;;;;;12.70;2.75;;;;;;;;;;5051033;28;21040;-73
2022/09/24 12:33:40;;;;;;;9.90;2.75;;;14.60;99.90;;;;;;5074135;28;20931;-72
2022/09/24 12:36:17;;;;;;;15.23;2.92;;;;;;;;;;5086602;28;20434;-73
2022/09/24 12:38:47;;;;;;;11.55;3.13;;;;;;;;;;5087903;28;20495;-73
2022/09/24 12:41:19;;;;;;;11.05;3.47;;;;;;;;;;5072395;28;20418;-73
2022/09/24 12:43:50;;;;;;;13.88;2.78;;;;;;;;;;5080723;28;20918;-74
2022/09/24 12:46:22;;;;;;;18.30;4.13;;;14.80;99.90;;;;;;5083139;28;20427;-73
2022/09/24 12:48:49;;;;;;;10.43;2.90;;;;;;;;;;5094721;28;20782;-73
2022/09/24 12:51:20;;;;;;;13.65;2.60;;;;;;;;;;5076660;28;20523;-75
2022/09/24 12:54:12;;;;;;;8.38;2.25;;;15.00;99.90;;;;;;5070062;28;20519;-73
2022/09/24 12:56:39;;;;;;;11.63;2.40;;;15.10;99.90;;;;;;5101383;28;20424;-74
2022/09/24 12:59:05;;;;;;;9.53;2.87;;;;;;;;;;5054533;28;20500;-73
2022/09/24 13:01:33;;;;;;;10.50;2.40;;;;;;;;;;5084587;28;20420;-73
2022/09/24 13:04:14;;;;;;;9.85;2.38;;;;;;;;;;5091132;28;20414;-73
2022/09/24 13:06:41;;;;;;;12.45;2.80;;;;;;;;;;5084404;28;20429;-73
2022/09/24 13:09:34;;;;;;;12.57;3.20;;;15.00;99.90;;;;;;5081350;28;20416;-73
2022/09/24 13:12:16;;;;;;;13.85;2.90;;;;;;;;;;5094458;28;20504;-73
2022/09/24 13:14:48;;;;;;;10.70;2.30;;;;;;;;;;5089079;28;20431;-73
2022/09/24 13:17:14;;;;;;;13.60;2.67;;;14.90;99.90;;;;;;5082055;28;20410;-73
2022/09/24 13:19:43;;;;;;;11.73;2.80;;;;;;;;;;5106779;27;21036;-73
2022/09/24 13:22:21;;;;;;;10.48;2.28;;;;;;;;;;5101106;28;20493;-73
2022/09/24 13:24:49;;;;;;;12.25;2.47;;;;;;;;;;5090093;27;20453;-73
2022/09/24 13:27:24;;;;;;;8.32;2.20;;;;;;;;;;5069556;28;20417;-74
2022/09/24 13:30:05;;;;;;;10.32;2.20;;;;;;;;;;5089114;27;20535;-73
2022/09/24 13:32:36;;;;;;;8.73;2.45;;;14.50;99.90;;;;;;5092330;27;20739;-73
2022/09/24 13:35:06;;;;;;;10.70;2.40;;;14.60;99.90;;;;;;5098509;27;20462;-73
2022/09/24 13:37:39;;;;;;;8.63;2.37;;;;;;;;;;5106644;27;20408;-73
2022/09/24 13:40:31;;;;;;;11.65;2.65;;;;;;;;;;5085767;28;20492;-73
2022/09/24 13:43:12;;;;;;;10.85;2.75;;;14.30;99.90;;;;;;5090694;28;20420;-73
2022/09/24 13:45:43;;;;;;;12.20;2.70;;;14.60;99.90;;;;;;5096045;27;20424;-74
2022/09/24 13:48:22;;;;;;;10.20;2.20;;;;;;;;;;5096033;27;20462;-73
2022/09/24 13:50:51;;;;;;;10.60;2.47;;;14.50;99.90;;;;;;5090170;28;20916;-73
2022/09/24 13:53:31;;;;;;;11.63;2.77;;;14.60;99.90;;;;;;5109982;27;20600;-73
2022/09/24 13:56:03;;;;;;;10.55;2.60;;;;;;;;;;5093433;28;20425;-72
2022/09/24 13:58:30;;;;;;;11.77;2.42;;;;;;;;;;5085931;28;20420;-73
2022/09/24 14:01:19;;;;;;;10.03;2.60;;;;;;;;;;5088792;28;20421;-73
2022/09/24 14:03:54;;;;;;;9.50;2.35;;;;;;;;;;5072414;28;20930;-74
2022/09/24 14:06:22;;;;;;;10.30;2.03;;;;;;;;;;5074308;28;20504;-72
2022/09/24 14:08:48;;;;;;;8.82;2.15;;;;;;;;;;5073138;28;20417;-72
2022/09/24 14:11:18;;;;;;;8.32;2.05;;;14.00;99.90;;;;;;5078661;28;20417;-72
2022/09/24 14:13:44;;;;;;;8.32;1.92;;;;;;;;;;5069085;28;20426;-73
2022/09/24 14:16:16;;;;;;;9.15;1.80;;;;;;;;;;5070625;28;20784;-72
2022/09/24 14:18:42;;;;;;;7.50;2.00;;;;;;;;;;5090798;28;20559;-72
2022/09/24 14:21:14;;;;;;;8.20;2.08;;;;;;;;;;5087616;28;20812;-73
2022/09/24 14:24:10;;;;;;;8.38;2.10;;;;;;;;;;5082529;28;20561;-73